Kirkby — S6NR — position and weather

sailwx.info

Track history (hours):
 
Tides and Currents Weather Stations Pressure Air Temp Water Temp Dewpoint Dewpoint Depression Visibility Wind Speed Wind Dir Waves Ship Positions

Kirkby

Last reported at 2018-Jun-18 21:02 UTC. Time now 2018-Jun-21 06:42 UTC.
Position N 41°05' E 001°15'.

Length 120 m; draft 6.8 m.

Type: Ship (hazmat cat A). MMSI: 566813000.

Date/timePositionNaut miles runAvg speedWind from/ knotsBaromVisibWave heightAir tempDewpointWater temp
2018-Jun-18 21:02N 41°05' E 001°15'0 0.0
2018-Jun-18 13:14N 41°05' E 001°15'  
2018-Jun-12 21:36N 38°20' E 000°09'113.6
2018-Jun-12 21:30N 38°19' E 000°08'713.6
2018-Jun-12 21:00N 38°13' E 000°03'713.6
2018-Jun-12 20:30N 38°08' W 000°01'713.7
2018-Jun-12 19:59N 38°02' W 000°06'913.8
2018-Jun-12 19:20N 37°54' W 000°13'413.8
2018-Jun-12 19:00N 37°51' W 000°16'713.8
2018-Jun-12 18:30N 37°45' W 000°21'713.8
2018-Jun-12 18:00N 37°39' W 000°26'713.8
2018-Jun-12 17:30N 37°33' W 000°31'713.6
2018-Jun-12 16:58N 37°29' W 000°37'614.1
2018-Jun-12 16:30N 37°28' W 000°46'714.4
2018-Jun-12 16:00N 37°28' W 000°55'10 0.9
2018-Jun-12 04:21N 37°33' W 001°05'0 0.0
2018-Jun-10 20:57N 37°33' W 001°06'0 0.0
2018-Jun-10 06:15N 37°33' W 001°06'0 0.1
2018-Jun-10 05:57N 37°33' W 001°06'0 0.1
2018-Jun-10 05:27N 37°33' W 001°06'0 0.1
2018-Jun-10 04:57N 37°33' W 001°06'0 0.0
2018-Jun-10 04:27N 37°33' W 001°06'0 0.1
2018-Jun-10 02:57N 37°33' W 001°06'0 0.1
2018-Jun-10 02:27N 37°33' W 001°06'0 0.1
2018-Jun-10 01:57N 37°33' W 001°06'0 0.1
2018-Jun-10 01:27N 37°33' W 001°06'6 0.3
2018-Jun-09 06:30N 37°34' W 000°58'2 3.2
2018-Jun-09 06:00N 37°34' W 000°60'1 2.2
2018-Jun-09 05:24N 37°33' W 001°00'  
Track history (hours):
 
Tides and Currents Weather Stations Pressure Air Temp Water Temp Dewpoint Dewpoint Depression Visibility Wind Speed Wind Dir Waves Ship Positions

Kirkby

Last reported at 2018-Jun-18 21:02 UTC. Time now 2018-Jun-21 06:42 UTC.
Position N 41°05' E 001°15'.

Length 120 m; draft 6.8 m.

Type: Ship (hazmat cat A). MMSI: 566813000.

Date/timePositionNaut miles runAvg speedWind from/ knotsBaromVisibWave heightAir tempDewpointWater temp
2018-Jun-18 21:02N 41°05' E 001°15'0 0.0
2018-Jun-18 13:14N 41°05' E 001°15'  
2018-Jun-12 21:36N 38°20' E 000°09'113.6
2018-Jun-12 21:30N 38°19' E 000°08'713.6
2018-Jun-12 21:00N 38°13' E 000°03'713.6
2018-Jun-12 20:30N 38°08' W 000°01'713.7
2018-Jun-12 19:59N 38°02' W 000°06'913.8
2018-Jun-12 19:20N 37°54' W 000°13'413.8
2018-Jun-12 19:00N 37°51' W 000°16'713.8
2018-Jun-12 18:30N 37°45' W 000°21'713.8
2018-Jun-12 18:00N 37°39' W 000°26'713.8
2018-Jun-12 17:30N 37°33' W 000°31'713.6
2018-Jun-12 16:58N 37°29' W 000°37'614.1
2018-Jun-12 16:30N 37°28' W 000°46'714.4
2018-Jun-12 16:00N 37°28' W 000°55'10 0.9
2018-Jun-12 04:21N 37°33' W 001°05'0 0.0
2018-Jun-10 20:57N 37°33' W 001°06'0 0.0
2018-Jun-10 06:15N 37°33' W 001°06'0 0.1
2018-Jun-10 05:57N 37°33' W 001°06'0 0.1
2018-Jun-10 05:27N 37°33' W 001°06'0 0.1
2018-Jun-10 04:57N 37°33' W 001°06'0 0.0
2018-Jun-10 04:27N 37°33' W 001°06'0 0.1
2018-Jun-10 02:57N 37°33' W 001°06'0 0.1
2018-Jun-10 02:27N 37°33' W 001°06'0 0.1
2018-Jun-10 01:57N 37°33' W 001°06'0 0.1
2018-Jun-10 01:27N 37°33' W 001°06'6 0.3
2018-Jun-09 06:30N 37°34' W 000°58'2 3.2
2018-Jun-09 06:00N 37°34' W 000°60'1 2.2
2018-Jun-09 05:24N 37°33' W 001°00'  

Dump ship's entire track history